Ontario Center, New York
Current Conditions -  °F | °C
As of 11:01 PM on Saturday 25 Oct 2014 (Local Time) from KROC Reporting Station
Broken Clouds Broken Clouds  
Wind Chill: 53°   Ceiling: 10000
Heat Index: 53°   Visibility: 10mi
Dew Point: 45°   Wind: 8mph
Humidity: 74%   Direction: 290°WNW
Pressure: 29.6"   Gusts: NA
Location:  43.23°N, 77.31°W
Report Text: KROC 260301Z 29007KT 10SM SCT020 BKN100 12/07 A2960 RMK AO2 T01170072
Loading
Personal Weather Stations






























Interactive Weather Map
Tropical Storm Tracking
New forecast layout! Learn more

10-Day Weather Forecast

Advertisements
Track Severe Weather on mobile